Weather at Tocumen International Airport

Public forecast

Using degrees Celsius for public forecast. Weather courtesy of forecast.io.

Current aviation weather report (METAR) for Tocumen International Airport

Retrieved 2020/11/25 12:00 UTC (42 minutes ago):

MPTO 251200Z 23003KT 9000 SCT017 SCT090 25/24 Q1010 RWY DAMP NOSIG

Aviation forecast (TAF) for Tocumen International Airport

Retrieved 2020/11/25 12:58 UTC (0 seconds ago):

TAF MPTO 251100Z 2512/2618 34006KT 9999 SCT018 SCT100 PROB40 2514/2518 18005KT 7000 TSRA SCT015CB BKN080 TEMPO 2518/2522 17008KT 6000 TSRA SCT014CB BKN080 BECMG 2523/2603 03006KT NSW